sensor_id;sensor_type;location;lat;lon;timestamp;temperature;humidity
38480;DHT22;62333;51.980;5.934;2023-06-14T00:01:47;23.30;37.70
38480;DHT22;62333;51.980;5.934;2023-06-14T00:04:14;23.30;38.10
38480;DHT22;62333;51.980;5.934;2023-06-14T00:06:42;23.20;37.90
38480;DHT22;62333;51.980;5.934;2023-06-14T00:09:11;23.20;38.00
38480;DHT22;62333;51.980;5.934;2023-06-14T00:11:39;23.10;38.00
38480;DHT22;62333;51.980;5.934;2023-06-14T00:14:05;23.10;38.10
38480;DHT22;62333;51.980;5.934;2023-06-14T00:16:31;23.10;38.20
38480;DHT22;62333;51.980;5.934;2023-06-14T00:18:58;23.00;38.30
38480;DHT22;62333;51.980;5.934;2023-06-14T00:21:23;23.00;38.30
38480;DHT22;62333;51.980;5.934;2023-06-14T00:23:49;23.00;38.50
38480;DHT22;62333;51.980;5.934;2023-06-14T00:26:15;22.90;38.50
38480;DHT22;62333;51.980;5.934;2023-06-14T00:28:41;22.90;38.60
38480;DHT22;62333;51.980;5.934;2023-06-14T00:31:06;22.90;38.70
38480;DHT22;62333;51.980;5.934;2023-06-14T00:33:32;22.80;38.70
38480;DHT22;62333;51.980;5.934;2023-06-14T00:35:57;22.80;38.80
38480;DHT22;62333;51.980;5.934;2023-06-14T00:38:23;22.80;38.90
38480;DHT22;62333;51.980;5.934;2023-06-14T00:40:49;22.80;39.00
38480;DHT22;62333;51.980;5.934;2023-06-14T00:43:14;22.70;39.00
38480;DHT22;62333;51.980;5.934;2023-06-14T00:45:40;22.70;39.10
38480;DHT22;62333;51.980;5.934;2023-06-14T00:48:06;22.60;39.20
38480;DHT22;62333;51.980;5.934;2023-06-14T00:50:33;22.60;39.30
38480;DHT22;62333;51.980;5.934;2023-06-14T00:53:00;22.60;39.40
38480;DHT22;62333;51.980;5.934;2023-06-14T00:55:27;22.50;39.50
38480;DHT22;62333;51.980;5.934;2023-06-14T00:57:54;22.50;39.60
38480;DHT22;62333;51.980;5.934;2023-06-14T01:00:20;22.50;39.70
38480;DHT22;62333;51.980;5.934;2023-06-14T01:02:46;22.40;39.80
38480;DHT22;62333;51.980;5.934;2023-06-14T01:05:12;22.40;39.90
38480;DHT22;62333;51.980;5.934;2023-06-14T01:07:54;22.30;40.00
38480;DHT22;62333;51.980;5.934;2023-06-14T01:13:42;22.30;40.10
38480;DHT22;62333;51.980;5.934;2023-06-14T01:16:07;22.20;40.20
38480;DHT22;62333;51.980;5.934;2023-06-14T01:18:33;22.20;40.30
38480;DHT22;62333;51.980;5.934;2023-06-14T01:21:00;22.20;40.30
38480;DHT22;62333;51.980;5.934;2023-06-14T01:23:31;22.20;40.50
38480;DHT22;62333;51.980;5.934;2023-06-14T01:26:01;22.10;40.50
38480;DHT22;62333;51.980;5.934;2023-06-14T01:28:28;22.10;40.50
38480;DHT22;62333;51.980;5.934;2023-06-14T01:30:59;22.10;40.60
38480;DHT22;62333;51.980;5.934;2023-06-14T01:33:27;22.10;40.60
38480;DHT22;62333;51.980;5.934;2023-06-14T01:35:55;22.10;40.70
38480;DHT22;62333;51.980;5.934;2023-06-14T01:38:23;22.00;40.80
38480;DHT22;62333;51.980;5.934;2023-06-14T01:40:50;22.00;40.90
38480;DHT22;62333;51.980;5.934;2023-06-14T01:43:18;21.90;40.90
38480;DHT22;62333;51.980;5.934;2023-06-14T01:45:46;21.90;41.10
38480;DHT22;62333;51.980;5.934;2023-06-14T01:48:13;21.90;41.10
38480;DHT22;62333;51.980;5.934;2023-06-14T01:50:39;21.80;41.20
38480;DHT22;62333;51.980;5.934;2023-06-14T01:53:08;21.80;41.30
38480;DHT22;62333;51.980;5.934;2023-06-14T01:55:34;21.80;41.30
38480;DHT22;62333;51.980;5.934;2023-06-14T01:58:03;21.80;41.40
38480;DHT22;62333;51.980;5.934;2023-06-14T02:00:29;21.70;41.40
38480;DHT22;62333;51.980;5.934;2023-06-14T02:02:55;21.70;41.50
38480;DHT22;62333;51.980;5.934;2023-06-14T02:05:21;21.70;41.60
38480;DHT22;62333;51.980;5.934;2023-06-14T02:07:47;21.70;41.80
38480;DHT22;62333;51.980;5.934;2023-06-14T02:10:13;21.60;41.90
38480;DHT22;62333;51.980;5.934;2023-06-14T02:12:40;21.60;41.90
38480;DHT22;62333;51.980;5.934;2023-06-14T02:15:06;21.60;41.90
38480;DHT22;62333;51.980;5.934;2023-06-14T02:17:32;21.50;41.90
38480;DHT22;62333;51.980;5.934;2023-06-14T02:19:58;21.50;42.00
38480;DHT22;62333;51.980;5.934;2023-06-14T02:22:24;21.50;42.10
38480;DHT22;62333;51.980;5.934;2023-06-14T02:24:50;21.40;42.70
38480;DHT22;62333;51.980;5.934;2023-06-14T02:27:16;21.40;42.20
38480;DHT22;62333;51.980;5.934;2023-06-14T02:29:42;21.40;42.30
38480;DHT22;62333;51.980;5.934;2023-06-14T02:32:08;21.40;42.30
38480;DHT22;62333;51.980;5.934;2023-06-14T02:34:34;21.30;42.30
38480;DHT22;62333;51.980;5.934;2023-06-14T02:37:00;21.30;43.00
38480;DHT22;62333;51.980;5.934;2023-06-14T02:39:28;21.30;42.50
38480;DHT22;62333;51.980;5.934;2023-06-14T02:41:54;21.30;42.50
38480;DHT22;62333;51.980;5.934;2023-06-14T02:44:24;21.30;42.70
38480;DHT22;62333;51.980;5.934;2023-06-14T02:46:53;21.20;42.80
38480;DHT22;62333;51.980;5.934;2023-06-14T02:49:19;21.20;42.80
38480;DHT22;62333;51.980;5.934;2023-06-14T02:51:44;21.20;43.50
38480;DHT22;62333;51.980;5.934;2023-06-14T02:54:10;21.10;42.90
38480;DHT22;62333;51.980;5.934;2023-06-14T02:56:36;21.10;43.00
38480;DHT22;62333;51.980;5.934;2023-06-14T02:59:02;21.10;43.10
38480;DHT22;62333;51.980;5.934;2023-06-14T03:01:28;21.10;43.10
38480;DHT22;62333;51.980;5.934;2023-06-14T03:04:03;21.10;43.20
38480;DHT22;62333;51.980;5.934;2023-06-14T03:06:32;21.00;43.20
38480;DHT22;62333;51.980;5.934;2023-06-14T03:08:59;21.00;43.40
38480;DHT22;62333;51.980;5.934;2023-06-14T03:11:29;21.00;43.40
38480;DHT22;62333;51.980;5.934;2023-06-14T03:13:54;21.00;43.60
38480;DHT22;62333;51.980;5.934;2023-06-14T03:16:21;20.90;43.50
38480;DHT22;62333;51.980;5.934;2023-06-14T03:18:53;20.90;43.60
38480;DHT22;62333;51.980;5.934;2023-06-14T03:21:19;20.90;43.70
38480;DHT22;62333;51.980;5.934;2023-06-14T03:23:46;20.80;43.90
38480;DHT22;62333;51.980;5.934;2023-06-14T03:26:12;20.80;44.00
38480;DHT22;62333;51.980;5.934;2023-06-14T03:28:46;20.80;44.10
38480;DHT22;62333;51.980;5.934;2023-06-14T03:31:12;20.70;44.20
38480;DHT22;62333;51.980;5.934;2023-06-14T03:33:38;20.70;44.20
38480;DHT22;62333;51.980;5.934;2023-06-14T03:36:05;20.70;44.30
38480;DHT22;62333;51.980;5.934;2023-06-14T03:38:31;20.60;44.40
38480;DHT22;62333;51.980;5.934;2023-06-14T03:40:56;20.60;44.60
38480;DHT22;62333;51.980;5.934;2023-06-14T03:43:22;20.60;44.60
38480;DHT22;62333;51.980;5.934;2023-06-14T03:45:48;20.60;44.60
38480;DHT22;62333;51.980;5.934;2023-06-14T03:48:13;20.50;44.70
38480;DHT22;62333;51.980;5.934;2023-06-14T03:50:39;20.50;44.80
38480;DHT22;62333;51.980;5.934;2023-06-14T03:53:06;20.50;44.90
38480;DHT22;62333;51.980;5.934;2023-06-14T03:55:32;20.50;45.10
38480;DHT22;62333;51.980;5.934;2023-06-14T03:57:58;20.50;45.00
38480;DHT22;62333;51.980;5.934;2023-06-14T04:00:24;20.40;45.10
38480;DHT22;62333;51.980;5.934;2023-06-14T04:02:50;20.40;45.10
38480;DHT22;62333;51.980;5.934;2023-06-14T04:05:16;20.40;45.30
38480;DHT22;62333;51.980;5.934;2023-06-14T04:07:44;20.40;45.40
38480;DHT22;62333;51.980;5.934;2023-06-14T04:10:13;20.30;45.40
38480;DHT22;62333;51.980;5.934;2023-06-14T04:12:39;20.30;45.60
38480;DHT22;62333;51.980;5.934;2023-06-14T04:15:06;20.30;45.70
38480;DHT22;62333;51.980;5.934;2023-06-14T04:17:33;20.30;45.70
38480;DHT22;62333;51.980;5.934;2023-06-14T04:20:00;20.30;45.80
38480;DHT22;62333;51.980;5.934;2023-06-14T04:22:26;20.30;45.80
38480;DHT22;62333;51.980;5.934;2023-06-14T04:24:54;20.30;46.00
38480;DHT22;62333;51.980;5.934;2023-06-14T04:27:25;20.30;46.00
38480;DHT22;62333;51.980;5.934;2023-06-14T04:29:55;20.40;46.00
38480;DHT22;62333;51.980;5.934;2023-06-14T04:32:25;20.40;46.10
38480;DHT22;62333;51.980;5.934;2023-06-14T04:34:54;20.40;46.10
38480;DHT22;62333;51.980;5.934;2023-06-14T04:37:23;20.40;46.30
38480;DHT22;62333;51.980;5.934;2023-06-14T04:39:49;20.40;46.20
38480;DHT22;62333;51.980;5.934;2023-06-14T04:42:15;20.50;46.30
38480;DHT22;62333;51.980;5.934;2023-06-14T04:44:42;20.50;46.30
38480;DHT22;62333;51.980;5.934;2023-06-14T04:47:12;20.50;46.30
38480;DHT22;62333;51.980;5.934;2023-06-14T04:49:38;20.60;46.40
38480;DHT22;62333;51.980;5.934;2023-06-14T04:52:06;20.60;47.00
38480;DHT22;62333;51.980;5.934;2023-06-14T04:54:33;20.60;46.40
38480;DHT22;62333;51.980;5.934;2023-06-14T04:56:59;20.60;46.40
38480;DHT22;62333;51.980;5.934;2023-06-14T04:59:25;20.60;46.40
38480;DHT22;62333;51.980;5.934;2023-06-14T05:01:51;20.60;46.40
38480;DHT22;62333;51.980;5.934;2023-06-14T05:04:17;20.60;46.40
38480;DHT22;62333;51.980;5.934;2023-06-14T05:06:44;20.70;46.50
38480;DHT22;62333;51.980;5.934;2023-06-14T05:09:11;20.70;47.00
38480;DHT22;62333;51.980;5.934;2023-06-14T05:11:36;20.70;46.40
38480;DHT22;62333;51.980;5.934;2023-06-14T05:14:02;20.70;46.50
38480;DHT22;62333;51.980;5.934;2023-06-14T05:16:28;20.70;46.40
38480;DHT22;62333;51.980;5.934;2023-06-14T05:18:54;20.80;46.50
38480;DHT22;62333;51.980;5.934;2023-06-14T05:21:20;20.80;46.60
38480;DHT22;62333;51.980;5.934;2023-06-14T05:23:46;20.90;46.60
38480;DHT22;62333;51.980;5.934;2023-06-14T05:26:12;20.90;46.60
38480;DHT22;62333;51.980;5.934;2023-06-14T05:28:38;21.00;46.60
38480;DHT22;62333;51.980;5.934;2023-06-14T05:31:04;21.00;46.60
38480;DHT22;62333;51.980;5.934;2023-06-14T05:33:29;21.00;46.50
38480;DHT22;62333;51.980;5.934;2023-06-14T05:35:55;21.10;46.50
38480;DHT22;62333;51.980;5.934;2023-06-14T05:38:21;21.20;46.50
38480;DHT22;62333;51.980;5.934;2023-06-14T05:40:46;21.20;46.50
38480;DHT22;62333;51.980;5.934;2023-06-14T05:43:12;21.20;46.40
38480;DHT22;62333;51.980;5.934;2023-06-14T05:45:38;21.30;46.30
38480;DHT22;62333;51.980;5.934;2023-06-14T05:48:04;21.40;46.30
38480;DHT22;62333;51.980;5.934;2023-06-14T05:50:30;21.50;46.20
38480;DHT22;62333;51.980;5.934;2023-06-14T05:52:55;21.60;46.20
38480;DHT22;62333;51.980;5.934;2023-06-14T05:55:21;21.70;46.10
38480;DHT22;62333;51.980;5.934;2023-06-14T05:57:47;21.80;46.00
38480;DHT22;62333;51.980;5.934;2023-06-14T06:00:14;21.90;45.90
38480;DHT22;62333;51.980;5.934;2023-06-14T06:02:44;21.90;45.80
38480;DHT22;62333;51.980;5.934;2023-06-14T06:05:11;22.00;45.70
38480;DHT22;62333;51.980;5.934;2023-06-14T06:07:37;22.10;45.60
38480;DHT22;62333;51.980;5.934;2023-06-14T06:10:03;22.10;45.50
38480;DHT22;62333;51.980;5.934;2023-06-14T06:12:30;22.10;45.50
38480;DHT22;62333;51.980;5.934;2023-06-14T06:14:56;22.20;45.60
38480;DHT22;62333;51.980;5.934;2023-06-14T06:17:21;22.20;45.40
38480;DHT22;62333;51.980;5.934;2023-06-14T06:19:47;22.30;45.40
38480;DHT22;62333;51.980;5.934;2023-06-14T06:22:13;22.30;45.40
38480;DHT22;62333;51.980;5.934;2023-06-14T06:24:38;22.40;45.40
38480;DHT22;62333;51.980;5.934;2023-06-14T06:27:04;22.40;45.30
38480;DHT22;62333;51.980;5.934;2023-06-14T06:29:30;22.50;45.20
38480;DHT22;62333;51.980;5.934;2023-06-14T06:31:56;22.60;45.20
38480;DHT22;62333;51.980;5.934;2023-06-14T06:34:21;22.60;45.10
38480;DHT22;62333;51.980;5.934;2023-06-14T06:36:47;22.70;45.00
38480;DHT22;62333;51.980;5.934;2023-06-14T06:39:13;22.80;45.00
38480;DHT22;62333;51.980;5.934;2023-06-14T06:41:40;22.80;44.80
38480;DHT22;62333;51.980;5.934;2023-06-14T06:44:07;22.90;44.80
38480;DHT22;62333;51.980;5.934;2023-06-14T06:46:33;23.00;44.70
38480;DHT22;62333;51.980;5.934;2023-06-14T06:48:59;23.10;44.50
38480;DHT22;62333;51.980;5.934;2023-06-14T06:51:25;23.10;44.30
38480;DHT22;62333;51.980;5.934;2023-06-14T06:53:54;23.20;44.30
38480;DHT22;62333;51.980;5.934;2023-06-14T06:56:21;23.30;44.40
38480;DHT22;62333;51.980;5.934;2023-06-14T06:58:49;23.30;44.20
38480;DHT22;62333;51.980;5.934;2023-06-14T07:01:15;23.40;44.10
38480;DHT22;62333;51.980;5.934;2023-06-14T07:03:41;23.40;43.90
38480;DHT22;62333;51.980;5.934;2023-06-14T07:06:07;23.50;43.70
38480;DHT22;62333;51.980;5.934;2023-06-14T07:08:32;23.50;43.60
38480;DHT22;62333;51.980;5.934;2023-06-14T07:10:58;23.60;43.60
38480;DHT22;62333;51.980;5.934;2023-06-14T07:13:24;23.60;43.60
38480;DHT22;62333;51.980;5.934;2023-06-14T07:15:50;23.80;43.70
38480;DHT22;62333;51.980;5.934;2023-06-14T07:18:16;23.80;43.50
38480;DHT22;62333;51.980;5.934;2023-06-14T07:20:41;23.90;43.40
38480;DHT22;62333;51.980;5.934;2023-06-14T07:23:08;24.00;43.30
38480;DHT22;62333;51.980;5.934;2023-06-14T07:25:34;24.10;43.00
38480;DHT22;62333;51.980;5.934;2023-06-14T07:27:59;24.20;42.70
38480;DHT22;62333;51.980;5.934;2023-06-14T07:30:25;24.30;42.70
38480;DHT22;62333;51.980;5.934;2023-06-14T07:32:53;24.40;42.50
38480;DHT22;62333;51.980;5.934;2023-06-14T07:35:18;24.50;42.50
38480;DHT22;62333;51.980;5.934;2023-06-14T07:37:44;24.70;42.30
38480;DHT22;62333;51.980;5.934;2023-06-14T07:40:13;24.80;42.20
38480;DHT22;62333;51.980;5.934;2023-06-14T07:42:38;24.90;42.00
38480;DHT22;62333;51.980;5.934;2023-06-14T07:45:05;25.00;41.70
38480;DHT22;62333;51.980;5.934;2023-06-14T07:47:31;25.10;40.70
38480;DHT22;62333;51.980;5.934;2023-06-14T07:49:57;25.10;40.70
38480;DHT22;62333;51.980;5.934;2023-06-14T07:52:22;25.10;40.50
38480;DHT22;62333;51.980;5.934;2023-06-14T07:54:48;25.10;40.50
38480;DHT22;62333;51.980;5.934;2023-06-14T07:57:13;25.10;40.10
38480;DHT22;62333;51.980;5.934;2023-06-14T07:59:39;25.20;40.00
38480;DHT22;62333;51.980;5.934;2023-06-14T08:02:05;25.20;39.80
38480;DHT22;62333;51.980;5.934;2023-06-14T08:04:32;25.20;39.30
38480;DHT22;62333;51.980;5.934;2023-06-14T08:06:58;25.20;39.30
38480;DHT22;62333;51.980;5.934;2023-06-14T08:09:24;25.30;39.30
38480;DHT22;62333;51.980;5.934;2023-06-14T08:11:50;25.30;39.30
38480;DHT22;62333;51.980;5.934;2023-06-14T08:14:16;25.40;39.40
38480;DHT22;62333;51.980;5.934;2023-06-14T08:16:42;25.50;39.30
38480;DHT22;62333;51.980;5.934;2023-06-14T08:19:08;25.60;39.10
38480;DHT22;62333;51.980;5.934;2023-06-14T08:21:33;25.60;38.60
38480;DHT22;62333;51.980;5.934;2023-06-14T08:24:02;25.60;38.50
38480;DHT22;62333;51.980;5.934;2023-06-14T08:26:28;25.70;38.40
38480;DHT22;62333;51.980;5.934;2023-06-14T08:28:57;25.70;38.30
38480;DHT22;62333;51.980;5.934;2023-06-14T08:31:23;25.70;38.30
38480;DHT22;62333;51.980;5.934;2023-06-14T08:33:50;25.90;38.00
38480;DHT22;62333;51.980;5.934;2023-06-14T08:36:16;25.90;37.80
38480;DHT22;62333;51.980;5.934;2023-06-14T08:38:41;25.90;37.90
38480;DHT22;62333;51.980;5.934;2023-06-14T08:41:08;25.90;37.90
38480;DHT22;62333;51.980;5.934;2023-06-14T08:43:37;26.00;37.90
38480;DHT22;62333;51.980;5.934;2023-06-14T08:46:04;26.00;38.00
38480;DHT22;62333;51.980;5.934;2023-06-14T08:48:31;26.10;38.00
38480;DHT22;62333;51.980;5.934;2023-06-14T08:51:00;26.10;38.00
38480;DHT22;62333;51.980;5.934;2023-06-14T08:53:33;26.20;37.80
38480;DHT22;62333;51.980;5.934;2023-06-14T08:56:02;26.30;37.20
38480;DHT22;62333;51.980;5.934;2023-06-14T08:58:30;26.40;37.00
38480;DHT22;62333;51.980;5.934;2023-06-14T09:00:57;26.50;37.00
38480;DHT22;62333;51.980;5.934;2023-06-14T09:03:24;26.60;37.00
38480;DHT22;62333;51.980;5.934;2023-06-14T09:05:56;26.70;36.80
38480;DHT22;62333;51.980;5.934;2023-06-14T09:08:22;26.80;36.60
38480;DHT22;62333;51.980;5.934;2023-06-14T09:10:48;26.80;36.70
38480;DHT22;62333;51.980;5.934;2023-06-14T09:13:14;26.90;36.80
38480;DHT22;62333;51.980;5.934;2023-06-14T09:15:40;26.90;37.00
38480;DHT22;62333;51.980;5.934;2023-06-14T09:18:06;27.00;36.60
38480;DHT22;62333;51.980;5.934;2023-06-14T09:20:32;27.10;36.00
38480;DHT22;62333;51.980;5.934;2023-06-14T09:22:58;27.10;35.50
38480;DHT22;62333;51.980;5.934;2023-06-14T09:25:24;27.10;35.60
38480;DHT22;62333;51.980;5.934;2023-06-14T09:27:51;27.10;35.80
38480;DHT22;62333;51.980;5.934;2023-06-14T09:30:20;27.20;36.00
38480;DHT22;62333;51.980;5.934;2023-06-14T09:32:46;27.30;36.30
38480;DHT22;62333;51.980;5.934;2023-06-14T09:35:11;27.40;36.40
38480;DHT22;62333;51.980;5.934;2023-06-14T09:37:37;27.50;36.40
38480;DHT22;62333;51.980;5.934;2023-06-14T09:40:04;27.50;36.20
38480;DHT22;62333;51.980;5.934;2023-06-14T09:42:31;27.50;36.30
38480;DHT22;62333;51.980;5.934;2023-06-14T09:44:57;27.50;36.70
38480;DHT22;62333;51.980;5.934;2023-06-14T09:47:25;27.40;36.00
38480;DHT22;62333;51.980;5.934;2023-06-14T09:49:51;27.50;36.30
38480;DHT22;62333;51.980;5.934;2023-06-14T09:52:22;27.60;36.40
38480;DHT22;62333;51.980;5.934;2023-06-14T09:54:52;27.70;36.40
38480;DHT22;62333;51.980;5.934;2023-06-14T09:57:23;27.80;35.70
38480;DHT22;62333;51.980;5.934;2023-06-14T09:59:53;27.70;34.80
38480;DHT22;62333;51.980;5.934;2023-06-14T10:02:26;27.70;34.10
38480;DHT22;62333;51.980;5.934;2023-06-14T10:05:12;27.60;34.30
38480;DHT22;62333;51.980;5.934;2023-06-14T10:07:51;27.60;34.40
38480;DHT22;62333;51.980;5.934;2023-06-14T10:10:18;27.60;34.50
38480;DHT22;62333;51.980;5.934;2023-06-14T10:12:44;27.60;34.60
38480;DHT22;62333;51.980;5.934;2023-06-14T10:15:15;27.70;34.90
38480;DHT22;62333;51.980;5.934;2023-06-14T10:18:07;27.70;34.90
38480;DHT22;62333;51.980;5.934;2023-06-14T10:20:45;27.70;34.80
38480;DHT22;62333;51.980;5.934;2023-06-14T10:23:18;27.80;34.90
38480;DHT22;62333;51.980;5.934;2023-06-14T10:25:45;27.90;35.00
38480;DHT22;62333;51.980;5.934;2023-06-14T10:28:20;28.10;34.70
38480;DHT22;62333;51.980;5.934;2023-06-14T10:33:35;28.40;34.30
38480;DHT22;62333;51.980;5.934;2023-06-14T10:36:23;28.50;34.30
38480;DHT22;62333;51.980;5.934;2023-06-14T10:39:16;28.70;34.70
38480;DHT22;62333;51.980;5.934;2023-06-14T10:41:50;28.90;33.70
38480;DHT22;62333;51.980;5.934;2023-06-14T10:46:55;29.10;33.50
38480;DHT22;62333;51.980;5.934;2023-06-14T10:49:44;29.30;33.40
38480;DHT22;62333;51.980;5.934;2023-06-14T10:52:15;29.50;32.80
38480;DHT22;62333;51.980;5.934;2023-06-14T10:55:18;29.70;32.30
38480;DHT22;62333;51.980;5.934;2023-06-14T10:57:51;30.10;32.80
38480;DHT22;62333;51.980;5.934;2023-06-14T11:00:23;30.40;32.20
38480;DHT22;62333;51.980;5.934;2023-06-14T11:05:58;30.90;31.70
38480;DHT22;62333;51.980;5.934;2023-06-14T11:08:44;31.30;31.60
38480;DHT22;62333;51.980;5.934;2023-06-14T11:11:17;31.60;31.10
38480;DHT22;62333;51.980;5.934;2023-06-14T11:13:45;31.90;30.80
38480;DHT22;62333;51.980;5.934;2023-06-14T11:16:15;32.20;30.70
38480;DHT22;62333;51.980;5.934;2023-06-14T11:18:41;32.60;30.60
38480;DHT22;62333;51.980;5.934;2023-06-14T11:21:07;33.20;30.30
38480;DHT22;62333;51.980;5.934;2023-06-14T11:23:34;33.60;29.90
38480;DHT22;62333;51.980;5.934;2023-06-14T11:26:00;34.10;29.70
38480;DHT22;62333;51.980;5.934;2023-06-14T11:28:36;34.60;29.10
38480;DHT22;62333;51.980;5.934;2023-06-14T11:31:03;35.00;28.80
38480;DHT22;62333;51.980;5.934;2023-06-14T11:33:29;35.40;28.70
38480;DHT22;62333;51.980;5.934;2023-06-14T11:35:55;35.90;28.60
38480;DHT22;62333;51.980;5.934;2023-06-14T11:38:20;36.40;28.40
38480;DHT22;62333;51.980;5.934;2023-06-14T11:40:46;36.80;27.90
38480;DHT22;62333;51.980;5.934;2023-06-14T11:43:12;36.80;27.70
38480;DHT22;62333;51.980;5.934;2023-06-14T11:45:39;36.90;27.70
38480;DHT22;62333;51.980;5.934;2023-06-14T11:48:06;37.00;27.70
38480;DHT22;62333;51.980;5.934;2023-06-14T11:50:31;37.30;27.70
38480;DHT22;62333;51.980;5.934;2023-06-14T11:53:01;37.50;27.50
38480;DHT22;62333;51.980;5.934;2023-06-14T11:55:35;37.90;27.30
38480;DHT22;62333;51.980;5.934;2023-06-14T11:58:01;38.10;27.20
38480;DHT22;62333;51.980;5.934;2023-06-14T12:00:28;38.30;26.90
38480;DHT22;62333;51.980;5.934;2023-06-14T12:02:55;38.30;26.80
38480;DHT22;62333;51.980;5.934;2023-06-14T12:05:24;38.30;26.70
38480;DHT22;62333;51.980;5.934;2023-06-14T12:08:01;38.40;26.80
38480;DHT22;62333;51.980;5.934;2023-06-14T12:10:28;38.60;26.80
38480;DHT22;62333;51.980;5.934;2023-06-14T12:12:57;38.90;26.60
38480;DHT22;62333;51.980;5.934;2023-06-14T12:15:24;39.10;26.60
38480;DHT22;62333;51.980;5.934;2023-06-14T12:17:49;39.30;26.30
38480;DHT22;62333;51.980;5.934;2023-06-14T12:20:16;39.10;26.40
38480;DHT22;62333;51.980;5.934;2023-06-14T12:25:30;39.10;26.50
38480;DHT22;62333;51.980;5.934;2023-06-14T12:28:07;39.30;26.50
38480;DHT22;62333;51.980;5.934;2023-06-14T12:30:35;39.40;26.50
38480;DHT22;62333;51.980;5.934;2023-06-14T12:33:02;39.50;26.40
38480;DHT22;62333;51.980;5.934;2023-06-14T12:35:28;39.70;26.50
38480;DHT22;62333;51.980;5.934;2023-06-14T12:37:53;39.90;26.50
38480;DHT22;62333;51.980;5.934;2023-06-14T12:40:19;40.10;26.30
38480;DHT22;62333;51.980;5.934;2023-06-14T12:42:45;40.30;26.30
38480;DHT22;62333;51.980;5.934;2023-06-14T12:45:13;40.50;26.20
38480;DHT22;62333;51.980;5.934;2023-06-14T12:47:39;40.40;26.10
38480;DHT22;62333;51.980;5.934;2023-06-14T12:50:05;40.50;26.30
38480;DHT22;62333;51.980;5.934;2023-06-14T12:52:31;40.60;26.20
38480;DHT22;62333;51.980;5.934;2023-06-14T12:55:01;40.70;26.10
38480;DHT22;62333;51.980;5.934;2023-06-14T12:57:28;40.70;26.10
38480;DHT22;62333;51.980;5.934;2023-06-14T12:59:53;40.70;26.00
38480;DHT22;62333;51.980;5.934;2023-06-14T13:02:20;40.60;26.00
38480;DHT22;62333;51.980;5.934;2023-06-14T13:04:50;40.40;26.10
38480;DHT22;62333;51.980;5.934;2023-06-14T13:07:16;40.20;26.00
38480;DHT22;62333;51.980;5.934;2023-06-14T13:09:42;39.80;26.10
38480;DHT22;62333;51.980;5.934;2023-06-14T13:12:10;39.30;26.30
38480;DHT22;62333;51.980;5.934;2023-06-14T13:14:40;38.40;26.20
38480;DHT22;62333;51.980;5.934;2023-06-14T13:17:09;37.50;26.60
38480;DHT22;62333;51.980;5.934;2023-06-14T13:19:36;36.70;27.00
38480;DHT22;62333;51.980;5.934;2023-06-14T13:22:02;35.90;27.20
38480;DHT22;62333;51.980;5.934;2023-06-14T13:24:28;35.20;27.60
38480;DHT22;62333;51.980;5.934;2023-06-14T13:26:56;34.70;28.00
38480;DHT22;62333;51.980;5.934;2023-06-14T13:29:23;34.30;28.30
38480;DHT22;62333;51.980;5.934;2023-06-14T13:31:48;33.90;28.20
38480;DHT22;62333;51.980;5.934;2023-06-14T13:34:14;33.50;28.40
38480;DHT22;62333;51.980;5.934;2023-06-14T13:36:40;33.20;28.60
38480;DHT22;62333;51.980;5.934;2023-06-14T13:39:05;33.00;28.80
38480;DHT22;62333;51.980;5.934;2023-06-14T13:41:32;32.80;29.00
38480;DHT22;62333;51.980;5.934;2023-06-14T13:44:00;32.80;29.10
38480;DHT22;62333;51.980;5.934;2023-06-14T13:46:26;32.90;28.90
38480;DHT22;62333;51.980;5.934;2023-06-14T13:48:52;32.80;28.80
38480;DHT22;62333;51.980;5.934;2023-06-14T13:51:18;32.60;28.80
38480;DHT22;62333;51.980;5.934;2023-06-14T13:53:50;32.40;29.00
38480;DHT22;62333;51.980;5.934;2023-06-14T13:56:16;32.10;29.00
38480;DHT22;62333;51.980;5.934;2023-06-14T13:58:42;31.70;29.20
38480;DHT22;62333;51.980;5.934;2023-06-14T14:01:08;31.40;29.40
38480;DHT22;62333;51.980;5.934;2023-06-14T14:03:35;31.10;29.70
38480;DHT22;62333;51.980;5.934;2023-06-14T14:06:01;30.70;29.90
38480;DHT22;62333;51.980;5.934;2023-06-14T14:08:27;30.40;30.30
38480;DHT22;62333;51.980;5.934;2023-06-14T14:10:53;30.10;30.60
38480;DHT22;62333;51.980;5.934;2023-06-14T14:13:19;29.90;31.00
38480;DHT22;62333;51.980;5.934;2023-06-14T14:15:46;29.60;31.20
38480;DHT22;62333;51.980;5.934;2023-06-14T14:18:12;29.50;31.50
38480;DHT22;62333;51.980;5.934;2023-06-14T14:20:38;29.30;31.60
38480;DHT22;62333;51.980;5.934;2023-06-14T14:23:04;29.20;31.80
38480;DHT22;62333;51.980;5.934;2023-06-14T14:25:30;29.00;31.80
38480;DHT22;62333;51.980;5.934;2023-06-14T14:27:55;28.80;31.80
38480;DHT22;62333;51.980;5.934;2023-06-14T14:30:21;28.60;31.60
38480;DHT22;62333;51.980;5.934;2023-06-14T14:32:49;28.40;32.20
38480;DHT22;62333;51.980;5.934;2023-06-14T14:35:17;28.30;31.70
38480;DHT22;62333;51.980;5.934;2023-06-14T14:37:43;28.30;31.80
38480;DHT22;62333;51.980;5.934;2023-06-14T14:40:09;28.10;31.80
38480;DHT22;62333;51.980;5.934;2023-06-14T14:42:36;27.90;32.10
38480;DHT22;62333;51.980;5.934;2023-06-14T14:45:02;27.90;32.40
38480;DHT22;62333;51.980;5.934;2023-06-14T14:47:28;27.80;32.60
38480;DHT22;62333;51.980;5.934;2023-06-14T14:49:54;27.70;33.10
38480;DHT22;62333;51.980;5.934;2023-06-14T14:52:19;27.50;33.90
38480;DHT22;62333;51.980;5.934;2023-06-14T14:54:45;27.40;33.30
38480;DHT22;62333;51.980;5.934;2023-06-14T14:57:11;27.40;34.10
38480;DHT22;62333;51.980;5.934;2023-06-14T14:59:36;27.50;33.80
38480;DHT22;62333;51.980;5.934;2023-06-14T15:02:02;27.40;33.60
38480;DHT22;62333;51.980;5.934;2023-06-14T15:04:28;27.40;33.70
38480;DHT22;62333;51.980;5.934;2023-06-14T15:06:53;27.40;33.70
38480;DHT22;62333;51.980;5.934;2023-06-14T15:09:19;27.40;33.80
38480;DHT22;62333;51.980;5.934;2023-06-14T15:11:45;27.50;33.80
38480;DHT22;62333;51.980;5.934;2023-06-14T15:14:11;27.50;33.70
38480;DHT22;62333;51.980;5.934;2023-06-14T15:16:37;27.40;33.70
38480;DHT22;62333;51.980;5.934;2023-06-14T15:19:02;27.40;33.90
38480;DHT22;62333;51.980;5.934;2023-06-14T15:21:28;27.40;34.00
38480;DHT22;62333;51.980;5.934;2023-06-14T15:23:54;27.40;34.10
38480;DHT22;62333;51.980;5.934;2023-06-14T15:26:20;27.40;34.30
38480;DHT22;62333;51.980;5.934;2023-06-14T15:28:46;27.40;34.40
38480;DHT22;62333;51.980;5.934;2023-06-14T15:31:11;27.40;34.40
38480;DHT22;62333;51.980;5.934;2023-06-14T15:33:37;27.40;34.30
38480;DHT22;62333;51.980;5.934;2023-06-14T15:36:03;27.40;34.30
38480;DHT22;62333;51.980;5.934;2023-06-14T15:38:29;27.30;34.20
38480;DHT22;62333;51.980;5.934;2023-06-14T15:40:55;27.30;34.40
38480;DHT22;62333;51.980;5.934;2023-06-14T15:43:21;27.30;34.40
38480;DHT22;62333;51.980;5.934;2023-06-14T15:45:48;27.30;34.50